Hovedside
METAR-TAF:

METAR-TAF

Lufthavner :

Ljungbyhed, Sverige

breddegrad: 56-04N, lengdegrad: 013-12E, høyde over havet: 43 m

Gjeldene værobservasjon

Denne rapporten ble laget for 31 minutter siden, klokken 19:50 UTC
Vind 5 kt fra Øst
Temperatur 0°C
Luftfuktighet 100%
Trykk 1016 hPa
Sikt: 0100 m
tåke

METAR: ESTL 141950Z AUTO 09005KT 0100 R29L/0375N FG VV000 00/00 Q1016

Tid: 21:21 (20:21 UTC)

Varsel

Denne rapporten ble laget for 9 timer og 8 minutter siden, klokken 11:13 UTC
Varsel gyldig fra 14. klokken 12 UTC til 14. klokken 16 UTC
Vind 4 kt fra Sørøst
Sikt 10 km eller mer
Spredte skyer i en høyde av 1500 ft
Midlertidig
fra 14. klokken 12 UTC til 14. klokken 16 UTC
Brutte skyer i en høyde av 1000 ft

TAF: ESTL 141113Z 1412/1416 14004KT 9999 SCT015 TEMPO 1412/1416 BKN010

Værobservasjoner og værvarsel for over 4000 flyplasser (METAR- og TAF-rapporter).

Tilgjengelige stasjoner er representert av de røde og gule prikkene på kartet.

Hold musepekeren over prikken for å se navnet på stasjonen.

Klikk så for å se værobservasjoner og -varsler.

For å forandre kartet kan du klikke på den grønne knappen med svart kryss for å zoome inn, på den grønne knappen med strek for å zoome ut, eller på de grønne pilene for å se tilstøtende kart.


METAR-TAF: